createdAt,value
2023-01-17T00:03:28.937Z,94593.06
2023-01-17T00:08:49.097Z,94588.38
2023-01-17T00:13:50.458Z,94583.84
2023-01-17T00:19:10.274Z,94587.56
2023-01-17T00:24:29.995Z,94585.00
2023-01-17T00:29:31.318Z,94584.97
2023-01-17T00:34:32.649Z,94585.16
2023-01-17T00:39:34.133Z,94579.59
2023-01-17T00:44:54.057Z,94578.81
2023-01-17T00:50:13.888Z,94581.25
2023-01-17T00:55:33.711Z,94592.06
2023-01-17T01:00:53.824Z,94589.13
2023-01-17T01:06:13.990Z,94590.59
2023-01-17T01:11:35.252Z,94599.91
2023-01-17T01:16:55.204Z,94592.78
2023-01-17T01:22:15.285Z,94603.72
2023-01-17T01:27:35.109Z,94610.38
2023-01-17T01:32:55.006Z,94611.19
2023-01-17T01:37:56.347Z,94602.81
2023-01-17T01:42:59.599Z,94597.88
2023-01-17T01:48:06.655Z,94602.50
2023-01-17T01:53:08.042Z,94594.91
2023-01-17T01:58:18.685Z,94582.47
2023-01-17T02:03:22.747Z,94589.41
2023-01-17T02:08:24.340Z,94588.56
2023-01-17T02:13:26.799Z,94580.88
2023-01-17T02:18:31.193Z,94591.22
2023-01-17T02:23:39.993Z,94594.69
2023-01-17T02:29:02.205Z,94595.50
2023-01-17T02:34:10.265Z,94590.66
2023-01-17T02:39:11.571Z,94606.53
2023-01-17T02:44:16.109Z,94598.81
2023-01-17T02:49:18.725Z,94612.75
2023-01-17T02:54:38.956Z,94611.72
2023-01-17T02:59:47.245Z,94616.31
2023-01-17T03:04:54.011Z,94621.59
2023-01-17T03:09:59.899Z,94638.16
2023-01-17T03:15:01.310Z,94650.41
2023-01-17T03:20:02.668Z,94648.13
2023-01-17T03:25:04.166Z,94655.84
2023-01-17T03:30:05.990Z,94678.63
2023-01-17T03:35:07.496Z,94665.72
2023-01-17T03:40:09.056Z,94671.78
2023-01-17T03:45:10.655Z,94681.19
2023-01-17T03:50:12.905Z,94687.94
2023-01-17T03:55:14.269Z,94678.66
2023-01-17T04:00:15.737Z,94699.44
2023-01-17T04:05:17.141Z,94697.38
2023-01-17T04:10:18.535Z,94704.34
2023-01-17T04:15:19.958Z,94704.09
2023-01-17T04:20:37.548Z,94718.56
2023-01-17T04:25:38.912Z,94713.16
2023-01-17T04:30:40.395Z,94724.88
2023-01-17T04:35:41.751Z,94736.25
2023-01-17T04:40:43.100Z,94751.53
2023-01-17T04:45:44.705Z,94759.69
2023-01-17T04:50:46.034Z,94774.75
2023-01-17T04:55:47.352Z,94788.75
2023-01-17T05:00:50.897Z,94797.41
2023-01-17T05:05:52.284Z,94796.75
2023-01-17T05:10:53.872Z,94799.75
2023-01-17T05:15:56.303Z,94800.94
2023-01-17T05:21:01.608Z,94798.28
2023-01-17T05:26:02.955Z,94810.69
2023-01-17T05:31:04.623Z,94811.75
2023-01-17T05:36:06.200Z,94826.78
2023-01-17T05:41:07.598Z,94817.09
2023-01-17T05:46:09.052Z,94828.13
2023-01-17T05:51:10.395Z,94830.38
2023-01-17T05:56:11.714Z,94846.47
2023-01-17T06:01:13.156Z,94858.44
2023-01-17T06:06:14.574Z,94853.16
2023-01-17T06:11:15.914Z,94853.06
2023-01-17T06:16:17.400Z,94861.72
2023-01-17T06:21:19.646Z,94856.94
2023-01-17T06:26:21.029Z,94857.88
2023-01-17T06:31:22.468Z,94848.81
2023-01-17T06:36:24.312Z,94846.69
2023-01-17T06:41:28.437Z,94861.38
2023-01-17T06:46:29.827Z,94868.78
2023-01-17T06:51:31.192Z,94882.03
2023-01-17T06:56:32.867Z,94890.94
2023-01-17T07:01:34.328Z,94902.91
2023-01-17T07:06:36.779Z,94890.38
2023-01-17T07:11:38.115Z,94904.88
2023-01-17T07:16:39.452Z,94917.50
2023-01-17T07:21:40.849Z,94916.13
2023-01-17T07:26:42.226Z,94916.56
2023-01-17T07:31:43.770Z,94926.53
2023-01-17T07:36:45.172Z,94924.69
2023-01-17T07:41:47.264Z,94919.41
2023-01-17T07:46:48.639Z,94912.53
2023-01-17T07:51:50.004Z,94922.69
2023-01-17T07:56:51.364Z,94917.41
2023-01-17T08:01:53.136Z,94921.47
2023-01-17T08:06:55.003Z,94921.47
2023-01-17T08:11:56.595Z,94926.75
2023-01-17T08:17:05.082Z,94937.69
2023-01-17T08:22:06.589Z,94941.09
2023-01-17T08:27:08.959Z,94947.78
2023-01-17T08:32:10.356Z,94957.91
2023-01-17T08:37:11.800Z,94973.72
2023-01-17T08:42:13.257Z,94980.41
2023-01-17T08:47:14.622Z,95000.06
2023-01-17T08:52:15.963Z,95004.91
2023-01-17T08:57:17.516Z,95014.63
2023-01-17T09:02:19.913Z,95012.00
2023-01-17T09:07:21.502Z,95028.03
2023-01-17T09:12:22.948Z,95023.19
2023-01-17T09:17:24.331Z,95037.19
2023-01-17T09:22:26.073Z,95037.59
2023-01-17T09:27:27.655Z,95042.84
2023-01-17T09:32:29.032Z,95047.91
2023-01-17T09:37:30.404Z,95047.69
2023-01-17T09:42:34.625Z,95052.31
2023-01-17T09:47:39.186Z,95058.19
2023-01-17T09:52:40.803Z,95046.75
2023-01-17T09:58:00.190Z,95055.25
2023-01-17T10:03:13.352Z,95054.44
2023-01-17T10:08:20.701Z,95062.75
2023-01-17T10:13:43.731Z,95059.25
2023-01-17T10:18:45.525Z,95062.50
2023-01-17T10:23:49.675Z,95071.81
2023-01-17T10:28:52.934Z,95069.50
2023-01-17T10:33:55.994Z,95074.72
2023-01-17T10:39:00.418Z,95092.97
2023-01-17T10:44:20.718Z,95092.53
2023-01-17T10:49:23.290Z,95100.69
2023-01-17T10:54:43.236Z,95100.06
2023-01-17T10:59:45.161Z,95104.13
2023-01-17T11:04:48.935Z,95099.34
2023-01-17T11:09:51.474Z,95107.19
2023-01-17T11:15:11.131Z,95098.69
2023-01-17T11:20:12.466Z,95115.09
2023-01-17T11:25:20.031Z,95109.09
2023-01-17T11:30:21.942Z,95105.63
2023-01-17T11:35:28.116Z,95105.78
2023-01-17T11:40:32.437Z,95107.97
2023-01-17T11:45:34.396Z,95104.78
2023-01-17T11:50:38.749Z,95099.13
2023-01-17T11:55:40.704Z,95100.28
2023-01-17T12:00:45.867Z,95100.25
2023-01-17T12:05:58.768Z,95097.25
2023-01-17T12:11:05.799Z,95090.41
2023-01-17T12:16:25.915Z,95095.91
2023-01-17T12:21:46.782Z,95098.91
2023-01-17T12:27:07.526Z,95107.50
2023-01-17T12:32:22.370Z,95111.78
2023-01-17T12:37:34.580Z,95102.66
2023-01-17T12:42:38.618Z,95106.19
2023-01-17T12:47:51.832Z,95114.28
2023-01-17T12:53:11.822Z,95113.44
2023-01-17T12:58:20.391Z,95110.16
2023-01-17T13:03:45.153Z,95113.34
2023-01-17T13:08:49.625Z,95117.44
2023-01-17T13:13:52.295Z,95120.72
2023-01-17T13:18:55.481Z,95125.78
2023-01-17T13:23:59.713Z,95130.66
2023-01-17T13:29:09.834Z,95133.28
2023-01-17T13:34:13.987Z,95139.34
2023-01-17T13:39:24.540Z,95146.22
2023-01-17T13:44:27.578Z,95153.31
2023-01-17T13:49:29.097Z,95159.34
2023-01-17T13:54:34.016Z,95158.50
2023-01-17T13:59:35.837Z,95167.72
2023-01-17T14:04:56.555Z,95176.13
2023-01-17T14:09:58.061Z,95176.28
2023-01-17T14:15:00.942Z,95170.81
2023-01-17T14:20:05.568Z,95167.47
2023-01-17T14:25:14.929Z,95168.00
2023-01-17T14:30:25.662Z,95155.72
2023-01-17T14:35:29.715Z,95164.78
2023-01-17T14:40:35.718Z,95163.56
2023-01-17T14:45:37.760Z,95173.34
2023-01-17T14:50:40.058Z,95177.81
2023-01-17T14:55:47.269Z,95175.78
2023-01-17T15:00:49.982Z,95177.00
2023-01-17T15:05:52.944Z,95187.00
2023-01-17T15:11:00.113Z,95196.94
2023-01-17T15:16:06.462Z,95201.81
2023-01-17T15:21:10.907Z,95191.25
2023-01-17T15:26:16.604Z,95195.72
2023-01-17T15:31:21.972Z,95198.56
2023-01-17T15:36:26.394Z,95195.31
2023-01-17T15:41:35.358Z,95201.41
2023-01-17T15:46:39.931Z,95192.09
2023-01-17T15:51:45.940Z,95201.41
2023-01-17T15:56:47.407Z,95195.31
2023-01-17T16:01:56.001Z,95196.94
2023-01-17T16:07:08.790Z,95194.09
2023-01-17T16:12:10.162Z,95192.47
2023-01-17T16:17:15.322Z,95212.13
2023-01-17T16:22:16.665Z,95210.34
2023-01-17T16:27:18.007Z,95196.94
2023-01-17T16:32:19.345Z,95204.66
2023-01-17T16:37:22.164Z,95199.78
2023-01-17T16:42:23.685Z,95190.06
2023-01-17T16:47:25.073Z,95195.50
2023-01-17T16:52:26.619Z,95183.94
2023-01-17T16:57:28.213Z,95175.22
2023-01-17T17:02:30.444Z,95185.28
2023-01-17T17:07:31.884Z,95180.16
2023-01-17T17:12:33.313Z,95174.06
2023-01-17T17:17:38.684Z,95176.88
2023-01-17T17:22:44.105Z,95171.59
2023-01-17T17:27:45.641Z,95180.09
2023-01-17T17:32:47.520Z,95191.78
2023-01-17T17:37:48.893Z,95209.97
2023-01-17T17:42:50.300Z,95212.41
2023-01-17T17:47:51.885Z,95203.25
2023-01-17T17:52:53.319Z,95203.03
2023-01-17T17:57:55.452Z,95194.91
2023-01-17T18:02:56.913Z,95188.41
2023-01-17T18:07:58.243Z,95198.50
2023-01-17T18:12:59.582Z,95202.72
2023-01-17T18:18:01.004Z,95193.13
2023-01-17T18:23:02.538Z,95202.00
2023-01-17T18:28:04.417Z,95196.28
2023-01-17T18:33:06.109Z,95200.28
2023-01-17T18:38:07.488Z,95194.78
2023-01-17T18:43:08.842Z,95194.53
2023-01-17T18:48:11.834Z,95206.63
2023-01-17T18:53:13.246Z,95205.38
2023-01-17T18:58:14.578Z,95213.22
2023-01-17T19:03:18.800Z,95206.50
2023-01-17T19:08:20.387Z,95207.69
2023-01-17T19:13:21.737Z,95207.28
2023-01-17T19:18:23.095Z,95205.19
2023-01-17T19:23:24.655Z,95219.34
2023-01-17T19:28:26.086Z,95221.34
2023-01-17T19:33:27.585Z,95226.78
2023-01-17T19:38:29.326Z,95224.34
2023-01-17T19:43:30.687Z,95229.34
2023-01-17T19:48:32.068Z,95221.03
2023-01-17T19:53:33.449Z,95225.84
2023-01-17T19:58:35.283Z,95233.91
2023-01-17T20:03:37.588Z,95236.53
2023-01-17T20:08:38.953Z,95243.78
2023-01-17T20:13:40.962Z,95253.69
2023-01-17T20:18:42.620Z,95255.72
2023-01-17T20:23:46.839Z,95252.75
2023-01-17T20:28:49.393Z,95251.94
2023-01-17T20:33:52.685Z,95264.78
2023-01-17T20:38:54.482Z,95271.63
2023-01-17T20:43:56.992Z,95267.34
2023-01-17T20:49:00.427Z,95272.00
2023-01-17T20:54:04.734Z,95278.22
2023-01-17T20:59:12.333Z,95270.19
2023-01-17T21:04:14.528Z,95275.22
2023-01-17T21:09:17.051Z,95280.31
2023-01-17T21:14:18.505Z,95269.16
2023-01-17T21:19:23.728Z,95264.34
2023-01-17T21:24:25.103Z,95265.16
2023-01-17T21:29:29.088Z,95274.50
2023-01-17T21:34:32.533Z,95271.31
2023-01-17T21:39:33.889Z,95258.63
2023-01-17T21:44:38.229Z,95257.69
2023-01-17T21:49:39.712Z,95261.75
2023-01-17T21:54:59.824Z,95263.00
2023-01-17T22:00:01.352Z,95248.44
2023-01-17T22:05:02.857Z,95244.00
2023-01-17T22:10:04.593Z,95233.13
2023-01-17T22:15:06.395Z,95229.47
2023-01-17T22:20:11.414Z,95223.47
2023-01-17T22:25:12.771Z,95227.16
2023-01-17T22:30:14.246Z,95231.66
2023-01-17T22:35:15.608Z,95217.09
2023-01-17T22:40:17.075Z,95217.13
2023-01-17T22:45:19.916Z,95201.78
2023-01-17T22:50:23.323Z,95201.41
2023-01-17T22:55:24.740Z,95194.16
2023-01-17T23:00:26.119Z,95194.16
2023-01-17T23:05:27.441Z,95188.91
2023-01-17T23:10:48.992Z,95174.34
2023-01-17T23:16:08.890Z,95161.47
2023-01-17T23:21:10.236Z,95146.31
2023-01-17T23:26:11.683Z,95150.72
2023-01-17T23:31:13.044Z,95159.47
2023-01-17T23:36:14.417Z,95158.25
2023-01-17T23:41:34.570Z,95157.09
2023-01-17T23:46:35.972Z,95168.53
2023-01-17T23:51:37.347Z,95178.31
2023-01-17T23:56:38.672Z,95169.41
